Will Rogers World Airport
KOKC : now visible

Airfield :











YOU CAN JOIN US ON...

 
LOGIN :

Register | Disclaimer

   EN    FR    IT 

 









Legend :    VFR   Marginal VFR   IFR   Intensive IFR   Very Intensive IFR
Visi :
Ceiling :
>= 8 km
>= 3000ft
5 to 8 km
1000 to 3000 ft
1500m to 5 km
500 to 1000 ft
800 to 1500m
200 to 500 ft
< 800m
< 200 ft
Symbols :   Thunderstorms  Fog  Heavy snow  Heavy precipitations  Wind > 20 kt






- Airport Elevation : 1295 ft
- IATA code : OKC


KOKC - Will Rogers World

CURRENT METAR :
  • 131127Z 03016KT 10SM BKN009 BKN047 22/20 A2994 RMK AO2 PK WND 36029/1053 LTG DSNT N-E RAE20 TSE26 CONS LTGICCC DSNT N-E CB DSNT N-E MOV E P0000 T02170200 $

EXPIRED METARs :
  • 131109Z 01017G29KT 10SM -TSRA BKN011 BKN028CB OVC037 22/21 A2998 RMK AO2 PK WND 36029/1053 LTG DSNT ALQDS CONS LTGICCC NW-NE-E TS NW-NE-E MOV E P0000 T02220206 $
  • 131052Z 36026G32KT 7SM -TSRA SCT011 BKN034CB OVC060 23/21 A2999 RMK AO2 PK WND 36032/1052 LTG DSNT ALQDS RAB12 TSE12B14 SLP136 CONS LTGICCC OHD TS OHD MOV E P0016 T02330211 $
  • 131014Z 33010KT 10SM -TSRA SCT065CB BKN075 BKN180 OVC250 26/22 A2994 RMK AO2 LTG DSNT NW-NE RAB12 TSE12B14 CONS LTGICCC NW-NE TS NW-NE MOV E P0000 T02610217 $
  • 130952Z 00000KT 10SM SCT100 BKN160 BKN180 OVC250 26/22 A2990 RMK AO2 LTG DSNT N AND NW TSE00 PRESRR SLP107 CONS LTGICCC DSNT NW-NE CB DSNT NW-NE T02560217 $
  • 130901Z 13011KT 10SM SCT100 BKN160 BKN250 26/22 A2986 RMK AO2 TSE00 OCNL LTGIC DSNT SE CB DSNT SE T02560217 $
  • 130852Z 11012KT 10SM TS FEW050CB SCT100 BKN160 BKN250 26/22 A2986 RMK AO2 RAE0756 TSB26E49B50 SLP091 OCNL LTGICCC S TS S MOV SE P0000 60000 T02560217 58013 $

TAF KOKC
Valid from the 13 at 09:00 until the 14 at 06:00 UTC


130913Z 1309/1406 11010KT P6SM SCT050 BKN150
TEMPO 1310/1313 VRB15G25KT 3SM TSRA SCT008 BKN025 OVC050CB
FM131500 16012G18KT P6SM BKN150
KZFW FIR / North America



MET'MAP, your aeronautical weather chart ! - Copyright ORBIFLY December 2007 - Disclaimer

ORBIFLY MET'MAP TEAM :

Programming & Development : Alexandra Zaïnal
Concept & original design : Baudouin d'Aumeries
Assistance for programming : Marc-Olivier Méhu
Technical & hardware support : Manuel Goepfert

Contact : metmap@orbifly.com




SOURCES & CREDITS :

   NOAA       Earth
Advisory